Carey, Texas
Current Conditions -  °F | °C
As of 3:53 PM on Friday 24 Oct 2014 (Local Time) from KCDS Reporting Station
Clear Clear  
Wind Chill: 90°   Ceiling: Unl
Heat Index: 90°   Visibility: 10mi
Dew Point: 52°   Wind: 15mph
Humidity: 27%   Direction: 220°SW
Pressure: 30.04"   Gusts: NA
Location:  34.47°N, 100.33°W
Report Text: KCDS 242053Z AUTO 22013KT 10SM CLR 32/11 A3004 RMK AO2 SLP148 T03220111 56022
Loading
Personal Weather Stations






























Interactive Weather Map
Tropical Storm Tracking
New forecast layout! Learn more

10-Day Weather Forecast

Advertisements
Track Severe Weather on mobile